createdAt,value
2018-05-08T00:00:16.084Z,16.77
2018-05-08T00:01:16.057Z,16.68
2018-05-08T00:02:16.073Z,16.58
2018-05-08T00:03:16.154Z,16.62
2018-05-08T00:04:16.016Z,16.50
2018-05-08T00:05:16.001Z,16.54
2018-05-08T00:06:15.989Z,16.43
2018-05-08T00:07:15.974Z,16.40
2018-05-08T00:08:15.959Z,16.32
2018-05-08T00:09:15.948Z,16.39
2018-05-08T00:10:15.932Z,16.41
2018-05-08T00:11:15.921Z,16.34
2018-05-08T00:12:15.911Z,16.25
2018-05-08T00:13:15.889Z,16.40
2018-05-08T00:14:15.888Z,16.37
2018-05-08T00:15:15.868Z,16.39
2018-05-08T00:16:15.856Z,16.40
2018-05-08T00:17:15.839Z,16.54
2018-05-08T00:18:15.820Z,16.44
2018-05-08T00:19:15.816Z,16.62
2018-05-08T00:20:15.792Z,16.80
2018-05-08T00:21:15.778Z,16.80
2018-05-08T00:22:15.764Z,16.79
2018-05-08T00:23:15.750Z,16.65
2018-05-08T00:24:15.744Z,16.69
2018-05-08T00:25:15.723Z,16.73
2018-05-08T00:26:15.709Z,16.65
2018-05-08T00:27:15.698Z,16.74
2018-05-08T00:28:15.689Z,16.57
2018-05-08T00:29:15.667Z,16.57
2018-05-08T00:30:15.659Z,16.62
2018-05-08T00:31:15.639Z,16.64
2018-05-08T00:32:15.622Z,16.65
2018-05-08T00:33:15.610Z,16.57
2018-05-08T00:34:15.602Z,16.57
2018-05-08T00:35:15.586Z,16.49
2018-05-08T00:36:15.567Z,16.57
2018-05-08T00:37:15.553Z,16.57
2018-05-08T00:38:15.538Z,16.69
2018-05-08T00:39:15.526Z,16.74
2018-05-08T00:40:15.524Z,16.76
2018-05-08T00:41:15.497Z,16.79
2018-05-08T00:42:15.483Z,16.76
2018-05-08T00:43:15.477Z,16.76
2018-05-08T00:44:15.454Z,16.80
2018-05-08T00:45:15.441Z,16.69
2018-05-08T00:46:15.434Z,16.73
2018-05-08T00:47:15.413Z,16.74
2018-05-08T00:48:15.411Z,16.74
2018-05-08T00:49:15.384Z,16.76
2018-05-08T00:50:15.376Z,16.74
2018-05-08T00:51:15.426Z,16.74
2018-05-08T00:52:15.351Z,16.76
2018-05-08T00:53:15.327Z,16.79
2018-05-08T00:54:15.318Z,16.69
2018-05-08T00:55:15.299Z,16.74
2018-05-08T00:56:15.287Z,16.72
2018-05-08T00:57:15.275Z,16.72
2018-05-08T00:58:15.257Z,16.76
2018-05-08T00:59:15.247Z,16.79
2018-05-08T01:00:15.226Z,16.76
2018-05-08T01:01:15.216Z,16.65
2018-05-08T01:02:15.199Z,16.62
2018-05-08T01:03:15.185Z,16.47
2018-05-08T01:04:15.176Z,16.47
2018-05-08T01:05:15.164Z,16.46
2018-05-08T01:06:15.151Z,16.51
2018-05-08T01:07:15.129Z,16.46
2018-05-08T01:08:15.117Z,16.34
2018-05-08T01:09:15.119Z,16.41
2018-05-08T01:10:15.101Z,16.32
2018-05-08T01:11:15.075Z,16.37
2018-05-08T01:12:15.058Z,16.39
2018-05-08T01:13:15.049Z,16.43
2018-05-08T01:14:15.029Z,16.40
2018-05-08T01:15:15.016Z,16.47
2018-05-08T01:16:15.003Z,16.49
2018-05-08T01:17:14.986Z,16.40
2018-05-08T01:18:14.988Z,16.41
2018-05-08T01:19:14.966Z,16.41
2018-05-08T01:20:14.943Z,16.40
2018-05-08T01:21:14.929Z,16.44
2018-05-08T01:22:14.965Z,16.39
2018-05-08T01:23:14.899Z,16.39
2018-05-08T01:24:14.884Z,16.29
2018-05-08T01:25:14.870Z,16.10
2018-05-08T01:26:14.856Z,16.16
2018-05-08T01:27:14.842Z,16.16
2018-05-08T01:28:14.828Z,16.13
2018-05-08T01:29:14.818Z,16.22
2018-05-08T01:30:14.799Z,16.03
2018-05-08T01:31:14.790Z,15.92
2018-05-08T01:32:14.769Z,15.99
2018-05-08T01:33:14.752Z,16.00
2018-05-08T01:34:14.746Z,16.00
2018-05-08T01:35:14.725Z,16.08
2018-05-08T01:36:14.710Z,16.09
2018-05-08T01:37:14.701Z,16.05
2018-05-08T01:38:14.682Z,16.09
2018-05-08T01:39:14.670Z,15.94
2018-05-08T01:40:14.652Z,15.96
2018-05-08T01:41:14.637Z,15.84
2018-05-08T01:42:14.623Z,15.72
2018-05-08T01:43:14.687Z,15.54
2018-05-08T01:44:14.602Z,15.59
2018-05-08T01:45:14.584Z,15.52
2018-05-08T01:46:14.567Z,15.62
2018-05-08T01:47:14.560Z,15.51
2018-05-08T01:48:14.538Z,15.39
2018-05-08T01:49:14.527Z,15.47
2018-05-08T01:50:14.508Z,15.43
2018-05-08T01:51:14.491Z,15.36
2018-05-08T01:52:14.478Z,15.27
2018-05-08T01:53:14.462Z,15.37
2018-05-08T01:54:14.448Z,15.43
2018-05-08T01:55:14.434Z,15.62
2018-05-08T01:56:14.418Z,15.57
2018-05-08T01:57:14.401Z,15.59
2018-05-08T01:58:14.389Z,15.67
2018-05-08T01:59:14.380Z,15.57
2018-05-08T02:00:14.359Z,15.65
2018-05-08T02:01:14.344Z,15.76
2018-05-08T02:02:14.329Z,15.78
2018-05-08T02:03:14.321Z,15.76
2018-05-08T02:04:14.299Z,15.73
2018-05-08T02:05:14.285Z,15.75
2018-05-08T02:06:14.268Z,15.83
2018-05-08T02:07:14.254Z,15.88
2018-05-08T02:08:14.241Z,15.92
2018-05-08T02:09:14.224Z,15.91
2018-05-08T02:10:14.209Z,15.91
2018-05-08T02:11:14.205Z,16.00
2018-05-08T02:12:14.188Z,15.98
2018-05-08T02:13:14.166Z,16.02
2018-05-08T02:14:14.151Z,15.99
2018-05-08T02:15:14.136Z,16.02
2018-05-08T02:16:14.122Z,15.96
2018-05-08T02:17:14.119Z,15.96
2018-05-08T02:18:14.093Z,15.91
2018-05-08T02:19:14.077Z,15.98
2018-05-08T02:20:14.062Z,15.91
2018-05-08T02:21:14.047Z,15.92
2018-05-08T02:22:14.031Z,16.00
2018-05-08T02:23:14.020Z,16.02
2018-05-08T02:24:14.003Z,15.91
2018-05-08T02:25:13.988Z,15.99
2018-05-08T02:26:13.974Z,16.00
2018-05-08T02:27:13.967Z,15.99
2018-05-08T02:28:13.942Z,16.05
2018-05-08T02:29:13.939Z,15.98
2018-05-08T02:30:13.915Z,15.90
2018-05-08T02:31:13.903Z,15.94
2018-05-08T02:32:13.891Z,15.96
2018-05-08T02:33:13.874Z,15.94
2018-05-08T02:34:13.856Z,16.00
2018-05-08T02:35:13.844Z,15.94
2018-05-08T02:36:13.825Z,16.05
2018-05-08T02:37:13.812Z,15.90
2018-05-08T02:38:13.796Z,15.87
2018-05-08T02:39:13.780Z,15.88
2018-05-08T02:40:13.766Z,15.80
2018-05-08T02:41:13.801Z,15.83
2018-05-08T02:42:13.736Z,15.73
2018-05-08T02:43:13.723Z,15.57
2018-05-08T02:44:13.705Z,15.47
2018-05-08T02:45:13.691Z,15.36
2018-05-08T02:46:13.677Z,15.43
2018-05-08T02:47:13.663Z,15.44
2018-05-08T02:48:13.647Z,15.60
2018-05-08T02:49:13.630Z,15.66
2018-05-08T02:50:13.622Z,15.78
2018-05-08T02:51:13.607Z,15.84
2018-05-08T02:52:13.595Z,15.76
2018-05-08T02:53:13.574Z,15.66
2018-05-08T02:54:13.559Z,15.57
2018-05-08T02:55:13.549Z,15.51
2018-05-08T02:56:13.528Z,15.48
2018-05-08T02:57:13.513Z,15.43
2018-05-08T02:58:13.497Z,15.57
2018-05-08T02:59:13.481Z,15.52
2018-05-08T03:00:13.466Z,15.45
2018-05-08T03:01:13.452Z,15.41
2018-05-08T03:02:13.437Z,15.23
2018-05-08T03:03:13.423Z,15.22
2018-05-08T03:04:13.407Z,15.33
2018-05-08T03:05:13.410Z,15.52
2018-05-08T03:06:13.385Z,15.50
2018-05-08T03:07:13.365Z,15.47
2018-05-08T03:08:13.346Z,15.52
2018-05-08T03:09:13.339Z,15.60
2018-05-08T03:10:13.315Z,15.60
2018-05-08T03:11:13.301Z,15.62
2018-05-08T03:12:13.285Z,15.55
2018-05-08T03:13:13.272Z,15.60
2018-05-08T03:14:13.254Z,15.57
2018-05-08T03:15:13.241Z,15.62
2018-05-08T03:16:13.225Z,15.67
2018-05-08T03:17:13.217Z,15.62
2018-05-08T03:18:13.203Z,15.45
2018-05-08T03:19:13.180Z,15.47
2018-05-08T03:20:13.164Z,15.55
2018-05-08T03:21:13.148Z,15.39
2018-05-08T03:22:13.135Z,15.37
2018-05-08T03:23:13.118Z,15.44
2018-05-08T03:24:13.104Z,15.55
2018-05-08T03:25:13.092Z,15.51
2018-05-08T03:26:13.077Z,15.41
2018-05-08T03:27:13.058Z,15.43
2018-05-08T03:28:13.043Z,15.47
2018-05-08T03:29:13.027Z,15.63
2018-05-08T03:30:13.013Z,15.55
2018-05-08T03:31:12.997Z,15.55
2018-05-08T03:32:12.981Z,15.44
2018-05-08T03:33:12.967Z,15.50
2018-05-08T03:34:12.956Z,15.51
2018-05-08T03:35:12.939Z,15.51
2018-05-08T03:36:12.922Z,15.57
2018-05-08T03:37:12.912Z,15.52
2018-05-08T03:38:12.892Z,15.63
2018-05-08T03:39:12.878Z,15.59
2018-05-08T03:40:12.865Z,15.57
2018-05-08T03:41:12.847Z,15.65
2018-05-08T03:42:12.833Z,15.59
2018-05-08T03:43:12.817Z,15.59
2018-05-08T03:44:12.801Z,15.54
2018-05-08T03:45:12.838Z,15.60
2018-05-08T03:46:12.773Z,15.59
2018-05-08T03:47:12.761Z,15.51
2018-05-08T03:48:12.750Z,15.57
2018-05-08T03:49:12.727Z,15.57
2018-05-08T03:50:12.729Z,15.48
2018-05-08T03:51:12.700Z,15.50
2018-05-08T03:52:12.681Z,15.50
2018-05-08T03:53:12.667Z,15.51
2018-05-08T03:54:12.651Z,15.54
2018-05-08T03:55:12.640Z,15.43
2018-05-08T03:56:12.619Z,15.43
2018-05-08T03:57:12.606Z,15.51
2018-05-08T03:58:12.590Z,15.51
2018-05-08T03:59:12.574Z,15.36
2018-05-08T04:00:12.558Z,15.39
2018-05-08T04:01:12.545Z,15.47
2018-05-08T04:02:12.532Z,15.37
2018-05-08T04:03:12.515Z,15.48
2018-05-08T04:04:12.499Z,15.52
2018-05-08T04:05:12.485Z,15.44
2018-05-08T04:06:12.473Z,15.41
2018-05-08T04:07:12.454Z,15.36
2018-05-08T04:08:12.440Z,15.35
2018-05-08T04:09:12.424Z,15.45
2018-05-08T04:10:12.407Z,15.51
2018-05-08T04:11:12.397Z,15.51
2018-05-08T04:12:12.378Z,15.50
2018-05-08T04:13:12.365Z,15.63
2018-05-08T04:14:12.349Z,15.55
2018-05-08T04:15:12.343Z,15.29
2018-05-08T04:16:12.317Z,15.23
2018-05-08T04:17:12.307Z,15.25
2018-05-08T04:18:12.286Z,15.32
2018-05-08T04:19:12.272Z,15.43
2018-05-08T04:20:12.258Z,15.39
2018-05-08T04:21:12.241Z,15.45
2018-05-08T04:22:12.225Z,15.37
2018-05-08T04:23:12.213Z,15.52
2018-05-08T04:24:12.195Z,15.54
2018-05-08T04:25:12.181Z,15.66
2018-05-08T04:26:12.166Z,15.59
2018-05-08T04:27:12.150Z,15.59
2018-05-08T04:28:12.137Z,15.41
2018-05-08T04:29:12.120Z,15.25
2018-05-08T04:30:12.105Z,15.19
2018-05-08T04:31:12.090Z,15.15
2018-05-08T04:32:12.076Z,15.26
2018-05-08T04:33:12.059Z,15.18
2018-05-08T04:34:12.048Z,15.25
2018-05-08T04:35:12.029Z,15.26
2018-05-08T04:36:12.013Z,15.30
2018-05-08T04:37:11.999Z,15.18
2018-05-08T04:38:11.983Z,15.10
2018-05-08T04:39:11.969Z,15.32
2018-05-08T04:40:11.957Z,15.22
2018-05-08T04:41:11.945Z,15.33
2018-05-08T04:42:11.924Z,15.44
2018-05-08T04:43:11.909Z,15.55
2018-05-08T04:44:11.891Z,15.54
2018-05-08T04:45:11.877Z,15.59
2018-05-08T04:46:11.863Z,15.60
2018-05-08T04:47:11.846Z,15.59
2018-05-08T04:48:11.831Z,15.41
2018-05-08T04:49:11.819Z,15.45
2018-05-08T04:50:11.802Z,15.44
2018-05-08T04:51:11.788Z,15.43
2018-05-08T04:52:11.772Z,15.26
2018-05-08T04:53:11.757Z,15.26
2018-05-08T04:54:11.741Z,15.36
2018-05-08T04:55:11.732Z,15.41
2018-05-08T04:56:11.711Z,15.39
2018-05-08T04:57:11.712Z,15.35
2018-05-08T04:58:11.681Z,15.39
2018-05-08T04:59:11.675Z,15.47
2018-05-08T05:00:11.651Z,15.37
2018-05-08T05:01:11.638Z,15.55
2018-05-08T05:02:11.627Z,15.63
2018-05-08T05:03:11.607Z,15.52
2018-05-08T05:04:11.590Z,15.47
2018-05-08T05:05:11.576Z,15.30
2018-05-08T05:06:11.561Z,15.26
2018-05-08T05:07:11.547Z,15.11
2018-05-08T05:08:11.529Z,15.11
2018-05-08T05:09:11.513Z,15.15
2018-05-08T05:10:11.499Z,15.29
2018-05-08T05:11:11.570Z,15.25
2018-05-08T05:12:11.476Z,15.23
2018-05-08T05:13:11.452Z,15.26
2018-05-08T05:14:11.439Z,15.25
2018-05-08T05:15:11.429Z,15.27
2018-05-08T05:16:11.407Z,15.47
2018-05-08T05:17:11.391Z,15.60
2018-05-08T05:18:11.375Z,15.60
2018-05-08T05:19:11.363Z,15.70
2018-05-08T05:20:11.346Z,15.84
2018-05-08T05:21:11.341Z,15.90
2018-05-08T05:22:11.374Z,15.96
2018-05-08T05:23:11.301Z,16.09
2018-05-08T05:24:11.287Z,16.36
2018-05-08T05:25:11.269Z,16.34
2018-05-08T05:26:11.271Z,16.36
2018-05-08T05:27:11.247Z,17.38
2018-05-08T05:28:11.225Z,18.86
2018-05-08T05:29:11.210Z,19.44
2018-05-08T05:30:11.194Z,19.52
2018-05-08T05:31:11.189Z,20.32
2018-05-08T05:32:11.168Z,21.33
2018-05-08T05:33:11.153Z,22.01
2018-05-08T05:34:11.139Z,22.25
2018-05-08T05:35:11.132Z,22.55
2018-05-08T05:36:11.109Z,22.80
2018-05-08T05:37:11.103Z,22.46
2018-05-08T05:38:11.083Z,22.77
2018-05-08T05:39:11.072Z,22.91
2018-05-08T05:40:11.059Z,22.34
2018-05-08T05:41:11.046Z,22.80
2018-05-08T05:42:11.038Z,23.28
2018-05-08T05:43:11.024Z,22.83
2018-05-08T05:44:11.014Z,22.31
2018-05-08T05:45:11.005Z,22.44
2018-05-08T05:46:10.994Z,23.14
2018-05-08T05:47:10.992Z,23.11
2018-05-08T05:48:10.974Z,23.56
2018-05-08T05:49:10.964Z,23.25
2018-05-08T05:50:10.956Z,23.44
2018-05-08T05:51:10.949Z,23.81
2018-05-08T05:52:10.947Z,23.21
2018-05-08T05:53:10.948Z,23.84
2018-05-08T05:54:10.922Z,24.59
2018-05-08T05:55:10.913Z,24.40
2018-05-08T05:56:10.907Z,24.06
2018-05-08T05:57:10.899Z,23.96
2018-05-08T05:58:10.891Z,23.14
2018-05-08T05:59:10.889Z,23.95
2018-05-08T06:00:10.899Z,24.63
2018-05-08T06:01:10.873Z,25.37
2018-05-08T06:02:10.868Z,25.37
2018-05-08T06:03:10.878Z,25.58
2018-05-08T06:04:10.852Z,25.30
2018-05-08T06:05:10.846Z,24.53
2018-05-08T06:06:10.841Z,25.21
2018-05-08T06:07:10.839Z,24.62
2018-05-08T06:08:10.829Z,24.46
2018-05-08T06:09:10.925Z,25.15
2018-05-08T06:10:10.819Z,25.55
2018-05-08T06:11:10.815Z,24.65
2018-05-08T06:12:10.824Z,24.55
2018-05-08T06:13:10.805Z,25.03
2018-05-08T06:14:10.801Z,25.30
2018-05-08T06:15:10.798Z,24.88
2018-05-08T06:16:10.792Z,24.78
2018-05-08T06:17:10.793Z,24.41
2018-05-08T06:18:10.785Z,23.76
2018-05-08T06:19:10.781Z,22.84
2018-05-08T06:20:10.782Z,22.68
2018-05-08T06:21:10.790Z,21.94
2018-05-08T06:22:10.772Z,21.91
2018-05-08T06:23:10.769Z,22.28
2018-05-08T06:24:10.768Z,22.41
2018-05-08T06:25:10.762Z,22.99
2018-05-08T06:26:10.758Z,23.20
2018-05-08T06:27:10.757Z,23.64
2018-05-08T06:28:10.752Z,23.74
2018-05-08T06:29:10.757Z,23.84
2018-05-08T06:30:10.759Z,23.91
2018-05-08T06:31:10.746Z,23.82
2018-05-08T06:32:10.791Z,24.37
2018-05-08T06:33:10.736Z,23.59
2018-05-08T06:34:10.736Z,23.69
2018-05-08T06:35:10.733Z,23.37
2018-05-08T06:36:10.727Z,22.68
2018-05-08T06:37:10.726Z,22.14
2018-05-08T06:38:10.728Z,21.97
2018-05-08T06:39:10.746Z,21.75
2018-05-08T06:40:10.720Z,22.00
2018-05-08T06:41:10.714Z,22.03
2018-05-08T06:42:10.713Z,21.97
2018-05-08T06:43:10.708Z,21.83
2018-05-08T06:44:10.765Z,21.56
2018-05-08T06:45:10.801Z,21.89
2018-05-08T06:46:10.696Z,22.10
2018-05-08T06:47:10.695Z,22.26
2018-05-08T06:48:10.688Z,22.15
2018-05-08T06:49:10.692Z,21.92
2018-05-08T06:50:10.680Z,21.80
2018-05-08T06:51:10.693Z,22.16
2018-05-08T06:52:10.680Z,22.34
2018-05-08T06:53:10.682Z,22.30
2018-05-08T06:54:10.677Z,22.36
2018-05-08T06:55:10.665Z,22.33
2018-05-08T06:56:10.650Z,22.46
2018-05-08T06:57:10.646Z,22.37
2018-05-08T06:58:10.653Z,22.46
2018-05-08T06:59:10.632Z,22.43
2018-05-08T07:00:10.629Z,22.56
2018-05-08T07:01:10.620Z,22.46
2018-05-08T07:02:10.613Z,22.59
2018-05-08T07:03:10.611Z,22.61
2018-05-08T07:04:10.602Z,22.37
2018-05-08T07:05:10.594Z,22.16
2018-05-08T07:06:10.589Z,22.06
2018-05-08T07:07:10.587Z,21.94
2018-05-08T07:08:10.581Z,22.30
2018-05-08T07:09:10.589Z,22.21
2018-05-08T07:10:10.561Z,22.36
2018-05-08T07:11:10.554Z,22.31
2018-05-08T07:12:10.544Z,22.41
2018-05-08T07:13:10.554Z,22.31
2018-05-08T07:14:10.531Z,22.31
2018-05-08T07:15:10.524Z,22.34
2018-05-08T07:16:10.612Z,22.40
2018-05-08T07:17:10.510Z,22.33
2018-05-08T07:18:10.500Z,22.34
2018-05-08T07:19:10.495Z,22.38
2018-05-08T07:20:10.482Z,22.33
2018-05-08T07:21:10.476Z,22.40
2018-05-08T07:22:10.470Z,22.37
2018-05-08T07:23:10.460Z,22.49
2018-05-08T07:24:10.450Z,22.67
2018-05-08T07:25:10.446Z,22.52
2018-05-08T07:26:10.438Z,22.63
2018-05-08T07:27:10.428Z,22.47
2018-05-08T07:28:10.420Z,22.46
2018-05-08T07:29:10.419Z,22.49
2018-05-08T07:30:10.402Z,22.36
2018-05-08T07:31:10.411Z,22.52
2018-05-08T07:32:10.385Z,22.38
2018-05-08T07:33:10.380Z,22.34
2018-05-08T07:34:10.368Z,22.47
2018-05-08T07:35:10.360Z,22.70
2018-05-08T07:36:10.352Z,22.63
2018-05-08T07:37:10.342Z,22.84
2018-05-08T07:38:10.393Z,22.78
2018-05-08T07:39:10.327Z,23.13
2018-05-08T07:40:10.313Z,23.45
2018-05-08T07:41:10.315Z,23.66
2018-05-08T07:42:10.302Z,23.85
2018-05-08T07:43:10.288Z,24.09
2018-05-08T07:44:10.286Z,23.94
2018-05-08T07:45:10.280Z,23.44
2018-05-08T07:46:10.269Z,23.01
2018-05-08T07:47:10.258Z,22.81
2018-05-08T07:48:10.239Z,22.98
2018-05-08T07:49:10.231Z,23.18
2018-05-08T07:50:10.222Z,23.16
2018-05-08T07:51:10.211Z,23.17
2018-05-08T07:52:10.205Z,23.11
2018-05-08T07:53:10.201Z,23.16
2018-05-08T07:54:10.184Z,23.14
2018-05-08T07:55:10.180Z,23.16
2018-05-08T07:56:10.169Z,23.34
2018-05-08T07:57:10.156Z,23.45
2018-05-08T07:58:10.147Z,23.39
2018-05-08T07:59:10.137Z,23.55
2018-05-08T08:00:10.131Z,23.56
2018-05-08T08:01:10.117Z,23.63
2018-05-08T08:02:10.109Z,23.70
2018-05-08T08:03:10.100Z,23.73
2018-05-08T08:04:10.098Z,23.64
2018-05-08T08:05:10.081Z,23.66
2018-05-08T08:06:10.073Z,23.86
2018-05-08T08:07:10.071Z,23.52
2018-05-08T08:08:10.063Z,23.16
2018-05-08T08:09:10.047Z,22.99
2018-05-08T08:10:10.040Z,23.07
2018-05-08T08:11:10.040Z,22.93
2018-05-08T08:12:10.019Z,22.83
2018-05-08T08:13:10.027Z,23.01
2018-05-08T08:14:10.002Z,22.91
2018-05-08T08:15:10.003Z,23.16
2018-05-08T08:16:09.983Z,23.08
2018-05-08T08:17:09.975Z,23.08
2018-05-08T08:18:09.969Z,23.06
2018-05-08T08:19:09.965Z,23.16
2018-05-08T08:20:09.948Z,22.83
2018-05-08T08:21:09.937Z,22.86
2018-05-08T08:22:09.931Z,22.96
2018-05-08T08:23:09.924Z,23.25
2018-05-08T08:24:09.908Z,23.37
2018-05-08T08:25:09.906Z,23.33
2018-05-08T08:26:09.888Z,23.39
2018-05-08T08:27:09.878Z,23.18
2018-05-08T08:28:09.868Z,23.14
2018-05-08T08:29:09.862Z,23.18
2018-05-08T08:30:09.850Z,23.44
2018-05-08T08:31:09.839Z,23.55
2018-05-08T08:32:09.827Z,23.56
2018-05-08T08:33:09.818Z,23.76
2018-05-08T08:34:09.808Z,23.56
2018-05-08T08:35:09.800Z,23.76
2018-05-08T08:36:09.792Z,23.71
2018-05-08T08:37:09.778Z,23.89
2018-05-08T08:38:09.777Z,23.94
2018-05-08T08:39:09.758Z,23.92
2018-05-08T08:40:09.747Z,23.89
2018-05-08T08:41:09.737Z,23.94
2018-05-08T08:42:09.733Z,23.89
2018-05-08T08:43:09.720Z,23.92
2018-05-08T08:44:09.713Z,24.09
2018-05-08T08:45:09.706Z,23.88
2018-05-08T08:46:09.689Z,23.67
2018-05-08T08:47:09.680Z,23.74
2018-05-08T08:48:09.669Z,23.81
2018-05-08T08:49:09.658Z,24.07
2018-05-08T08:50:09.649Z,24.21
2018-05-08T08:51:09.654Z,24.32
2018-05-08T08:52:09.629Z,24.59
2018-05-08T08:53:09.620Z,24.62
2018-05-08T08:54:09.609Z,24.68
2018-05-08T08:55:09.607Z,24.86
2018-05-08T08:56:09.656Z,25.30
2018-05-08T08:57:09.582Z,25.55
2018-05-08T08:58:09.571Z,25.22
2018-05-08T08:59:09.568Z,25.51
2018-05-08T09:00:09.548Z,25.86
2018-05-08T09:01:09.552Z,25.92
2018-05-08T09:02:09.531Z,26.15
2018-05-08T09:03:09.520Z,26.08
2018-05-08T09:04:09.511Z,26.67
2018-05-08T09:05:09.500Z,27.03
2018-05-08T09:06:09.491Z,26.92
2018-05-08T09:07:09.482Z,26.37
2018-05-08T09:08:09.473Z,26.18
2018-05-08T09:09:09.464Z,26.48
2018-05-08T09:10:09.454Z,26.59
2018-05-08T09:11:09.523Z,26.61
2018-05-08T09:12:09.437Z,26.29
2018-05-08T09:13:09.443Z,26.41
2018-05-08T09:14:09.421Z,26.67
2018-05-08T09:15:09.414Z,26.79
2018-05-08T09:16:09.405Z,26.68
2018-05-08T09:17:09.400Z,26.59
2018-05-08T09:18:09.393Z,26.61
2018-05-08T09:19:09.392Z,26.83
2018-05-08T09:20:09.376Z,26.79
2018-05-08T09:21:09.469Z,26.91
2018-05-08T09:22:09.360Z,26.78
2018-05-08T09:23:09.353Z,26.66
2018-05-08T09:24:09.353Z,26.24
2018-05-08T09:25:09.348Z,26.15
2018-05-08T09:26:09.333Z,26.10
2018-05-08T09:27:09.336Z,26.08
2018-05-08T09:28:09.318Z,26.16
2018-05-08T09:29:09.312Z,26.49
2018-05-08T09:30:09.309Z,27.57
2018-05-08T09:31:09.301Z,28.22
2018-05-08T09:32:09.303Z,27.93
2018-05-08T09:33:09.293Z,28.27
2018-05-08T09:34:09.294Z,28.97
2018-05-08T09:35:09.272Z,29.30
2018-05-08T09:36:09.268Z,29.00
2018-05-08T09:37:09.259Z,28.94
2018-05-08T09:38:09.252Z,28.86
2018-05-08T09:39:09.245Z,29.25
2018-05-08T09:40:09.251Z,28.93
2018-05-08T09:41:09.231Z,28.62
2018-05-08T09:42:09.226Z,28.62
2018-05-08T09:43:09.238Z,28.46
2018-05-08T09:44:09.214Z,28.97
2018-05-08T09:45:09.225Z,29.22
2018-05-08T09:46:09.214Z,29.73
2018-05-08T09:47:09.199Z,28.70
2018-05-08T09:48:09.195Z,29.25
2018-05-08T09:49:09.213Z,29.99
2018-05-08T09:50:09.197Z,29.67
2018-05-08T09:51:09.187Z,29.31
2018-05-08T09:52:09.194Z,29.49
2018-05-08T09:53:09.192Z,29.92
2018-05-08T09:54:09.253Z,30.10
2018-05-08T09:55:09.331Z,30.16
2018-05-08T09:56:09.185Z,29.84
2018-05-08T09:57:09.180Z,30.05
2018-05-08T09:58:09.180Z,30.52
2018-05-08T09:59:09.183Z,31.18
2018-05-08T10:00:09.181Z,31.67
2018-05-08T10:01:09.240Z,31.77
2018-05-08T10:02:09.193Z,30.01
2018-05-08T10:03:09.184Z,30.11
2018-05-08T10:04:09.185Z,29.86
2018-05-08T10:05:09.187Z,30.39
2018-05-08T10:06:09.195Z,30.13
2018-05-08T10:07:09.204Z,30.14
2018-05-08T10:08:09.196Z,30.54
2018-05-08T10:09:09.197Z,31.08
2018-05-08T10:10:09.206Z,30.88
2018-05-08T10:11:09.210Z,30.10
2018-05-08T10:12:09.207Z,30.03
2018-05-08T10:13:09.220Z,29.92
2018-05-08T10:14:09.215Z,29.99
2018-05-08T10:15:09.222Z,30.73
2018-05-08T10:16:09.230Z,31.36
2018-05-08T10:17:09.226Z,31.45
2018-05-08T10:18:09.232Z,30.96
2018-05-08T10:19:09.236Z,30.93
2018-05-08T10:20:09.241Z,29.79
2018-05-08T10:21:09.244Z,29.55
2018-05-08T10:22:09.257Z,30.08
2018-05-08T10:23:09.260Z,30.52
2018-05-08T10:24:09.259Z,30.85
2018-05-08T10:25:09.271Z,30.39
2018-05-08T10:26:09.272Z,30.31
2018-05-08T10:27:09.274Z,29.86
2018-05-08T10:28:09.279Z,28.92
2018-05-08T10:29:09.283Z,29.16
2018-05-08T10:30:09.292Z,28.92
2018-05-08T10:31:09.295Z,29.20
2018-05-08T10:32:09.299Z,30.01
2018-05-08T10:33:09.302Z,30.20
2018-05-08T10:34:09.309Z,30.23
2018-05-08T10:35:09.326Z,30.52
2018-05-08T10:36:09.315Z,31.11
2018-05-08T10:37:09.321Z,30.58
2018-05-08T10:38:09.328Z,30.77
2018-05-08T10:39:09.331Z,30.88
2018-05-08T10:40:09.337Z,31.00
2018-05-08T10:41:09.340Z,31.54
2018-05-08T10:42:09.347Z,31.73
2018-05-08T10:43:09.352Z,31.92
2018-05-08T10:44:09.365Z,31.77
2018-05-08T10:45:09.366Z,30.59
2018-05-08T10:46:09.370Z,30.51
2018-05-08T10:47:09.375Z,30.44
2018-05-08T10:48:09.385Z,30.62
2018-05-08T10:49:09.389Z,30.61
2018-05-08T10:50:09.391Z,29.83
2018-05-08T10:51:09.403Z,30.29
2018-05-08T10:52:09.402Z,30.26
2018-05-08T10:53:09.422Z,30.35
2018-05-08T10:54:09.421Z,29.98
2018-05-08T10:55:09.419Z,29.94
2018-05-08T10:56:09.427Z,29.52
2018-05-08T10:57:09.431Z,29.46
2018-05-08T10:58:09.437Z,29.92
2018-05-08T10:59:09.448Z,30.36
2018-05-08T11:00:09.453Z,29.92
2018-05-08T11:01:09.454Z,30.24
2018-05-08T11:02:09.459Z,30.49
2018-05-08T11:03:09.466Z,30.16
2018-05-08T11:04:09.471Z,29.80
2018-05-08T11:05:09.477Z,30.24
2018-05-08T11:06:09.482Z,30.59
2018-05-08T11:07:09.488Z,30.71
2018-05-08T11:08:09.492Z,30.55
2018-05-08T11:09:09.503Z,30.99
2018-05-08T11:10:09.504Z,31.05
2018-05-08T11:11:09.511Z,31.05
2018-05-08T11:12:09.515Z,31.67
2018-05-08T11:13:09.530Z,31.62
2018-05-08T11:14:09.528Z,30.65
2018-05-08T11:15:09.535Z,30.88
2018-05-08T11:16:09.542Z,31.36
2018-05-08T11:17:09.549Z,31.51
2018-05-08T11:18:09.551Z,31.50
2018-05-08T11:19:09.573Z,31.72
2018-05-08T11:20:09.564Z,31.93
2018-05-08T11:21:09.570Z,31.57
2018-05-08T11:22:09.576Z,31.95
2018-05-08T11:23:09.591Z,32.04
2018-05-08T11:24:09.597Z,31.44
2018-05-08T11:25:09.601Z,31.29
2018-05-08T11:26:09.604Z,30.88
2018-05-08T11:27:09.608Z,31.14
2018-05-08T11:28:09.620Z,31.23
2018-05-08T11:29:09.621Z,30.05
2018-05-08T11:30:09.635Z,30.01
2018-05-08T11:31:09.635Z,30.21
2018-05-08T11:32:09.640Z,30.21
2018-05-08T11:33:09.658Z,30.49
2018-05-08T11:34:09.658Z,30.24
2018-05-08T11:35:09.668Z,30.78
2018-05-08T11:36:09.712Z,30.71
2018-05-08T11:37:09.666Z,29.95
2018-05-08T11:38:09.673Z,30.18
2018-05-08T11:39:09.716Z,30.03
2018-05-08T11:40:09.687Z,30.17
2018-05-08T11:41:09.693Z,29.61
2018-05-08T11:42:09.695Z,29.99
2018-05-08T11:43:09.698Z,30.29
2018-05-08T11:44:09.697Z,30.33
2018-05-08T11:45:09.712Z,30.56
2018-05-08T11:46:09.726Z,30.70
2018-05-08T11:47:09.708Z,30.29
2018-05-08T11:48:09.709Z,29.55
2018-05-08T11:49:09.792Z,28.96
2018-05-08T11:50:09.833Z,29.27
2018-05-08T11:51:09.723Z,29.35
2018-05-08T11:52:09.717Z,29.44
2018-05-08T11:53:09.721Z,29.39
2018-05-08T11:54:09.729Z,29.49
2018-05-08T11:55:09.730Z,28.20
2018-05-08T11:56:09.725Z,27.57
2018-05-08T11:57:09.721Z,27.63
2018-05-08T11:58:09.721Z,27.16
2018-05-08T11:59:09.721Z,27.35
2018-05-08T12:00:09.724Z,27.48
2018-05-08T12:01:09.717Z,27.58
2018-05-08T12:02:09.716Z,27.75
2018-05-08T12:03:09.712Z,27.41
2018-05-08T12:04:09.712Z,27.34
2018-05-08T12:05:09.706Z,27.50
2018-05-08T12:06:09.709Z,27.58
2018-05-08T12:07:09.701Z,27.67
2018-05-08T12:08:09.692Z,27.82
2018-05-08T12:09:09.739Z,27.79
2018-05-08T12:10:09.685Z,27.94
2018-05-08T12:11:09.682Z,27.52
2018-05-08T12:12:09.683Z,27.44
2018-05-08T12:13:09.678Z,27.64
2018-05-08T12:14:09.666Z,27.81
2018-05-08T12:15:09.663Z,27.57
2018-05-08T12:16:09.655Z,27.44
2018-05-08T12:17:09.649Z,27.38
2018-05-08T12:18:09.646Z,27.08
2018-05-08T12:19:09.647Z,26.83
2018-05-08T12:20:09.634Z,27.11
2018-05-08T12:21:09.628Z,27.29
2018-05-08T12:22:09.622Z,27.34
2018-05-08T12:23:09.617Z,27.40
2018-05-08T12:24:09.613Z,27.50
2018-05-08T12:25:09.604Z,27.47
2018-05-08T12:26:09.604Z,27.35
2018-05-08T12:27:09.593Z,27.41
2018-05-08T12:28:09.588Z,27.57
2018-05-08T12:29:09.582Z,27.57
2018-05-08T12:30:09.574Z,27.82
2018-05-08T12:31:09.565Z,27.83
2018-05-08T12:32:09.557Z,28.01
2018-05-08T12:33:09.551Z,27.94
2018-05-08T12:34:09.549Z,27.63
2018-05-08T12:35:09.541Z,27.66
2018-05-08T12:36:09.550Z,27.43
2018-05-08T12:37:09.524Z,27.19
2018-05-08T12:38:09.518Z,27.48
2018-05-08T12:39:09.511Z,27.73
2018-05-08T12:40:09.503Z,27.81
2018-05-08T12:41:09.496Z,27.90
2018-05-08T12:42:09.555Z,27.67
2018-05-08T12:43:09.483Z,27.52
2018-05-08T12:44:09.482Z,27.76
2018-05-08T12:45:09.468Z,27.93
2018-05-08T12:46:09.468Z,27.68
2018-05-08T12:47:09.453Z,27.95
2018-05-08T12:48:09.447Z,28.16
2018-05-08T12:49:09.439Z,28.12
2018-05-08T12:50:09.431Z,28.03
2018-05-08T12:51:09.525Z,27.86
2018-05-08T12:52:09.417Z,28.12